Time;durP1;ratioP1;P1;durP2;ratioP2;P2;SDS_P1;SDS_P2;PMS_P1;PMS_P2;Temp;Humidity;BMP_temperature;BMP_pressure;BME280_temperature;BME280_humidity;BME280_pressure;Samples;Min_cycle;Max_cycle;Signal;HPM_P1;HPM_P2
2023/02/08 00:01:00;;;;;;;32.17;12.45;;;-5.30;99.90;;;;;;5075024;28;25057;-70
2023/02/08 00:03:27;;;;;;;35.70;14.05;;;-5.30;99.90;;;;;;5076117;28;25088;-70
2023/02/08 00:05:55;;;;;;;36.20;13.68;;;-5.30;99.90;;;;;;5075739;28;25067;-70
2023/02/08 00:08:22;;;;;;;46.38;16.52;;;-5.30;99.90;;;;;;5075803;28;25094;-70
2023/02/08 00:10:50;;;;;;;37.58;14.32;;;-5.40;99.90;;;;;;5074824;28;25068;-70
2023/02/08 00:13:17;;;;;;;38.97;15.43;;;-5.40;99.90;;;;;;5076256;28;25099;-70
2023/02/08 00:15:46;;;;;;;37.17;15.13;;;-5.40;99.90;;;;;;5076362;28;25111;-70
2023/02/08 00:18:14;;;;;;;33.20;13.75;;;-5.40;99.90;;;;;;5075341;28;25139;-70
2023/02/08 00:20:42;;;;;;;42.38;15.80;;;-5.40;99.90;;;;;;5074852;28;25089;-70
2023/02/08 00:23:09;;;;;;;50.97;17.08;;;-5.50;99.90;;;;;;5074622;28;25062;-70
2023/02/08 00:25:37;;;;;;;37.33;14.43;;;-5.40;99.90;;;;;;5075708;28;25062;-70
2023/02/08 00:28:04;;;;;;;36.33;13.73;;;-5.40;99.90;;;;;;5075544;28;25055;-70
2023/02/08 00:30:32;;;;;;;35.47;13.93;;;-5.40;99.90;;;;;;5074962;28;25080;-70
2023/02/08 00:33:00;;;;;;;29.27;13.02;;;-5.40;99.90;;;;;;5041415;28;25058;-70
2023/02/08 00:35:27;;;;;;;35.83;13.85;;;-5.50;99.90;;;;;;5059148;28;25100;-70
2023/02/08 00:37:55;;;;;;;33.13;11.55;;;-5.50;99.90;;;;;;5041371;28;25077;-70
2023/02/08 00:40:23;;;;;;;31.58;12.88;;;-5.50;99.90;;;;;;5059036;28;25072;-70
2023/02/08 00:42:51;;;;;;;34.67;13.23;;;-5.50;99.90;;;;;;5058946;28;25056;-70
2023/02/08 00:45:18;;;;;;;28.08;12.57;;;-5.50;99.90;;;;;;5059155;28;25087;-69
2023/02/08 00:47:45;;;;;;;30.35;12.20;;;-5.60;99.90;;;;;;5041184;28;25047;-70
2023/02/08 00:50:12;;;;;;;37.88;14.32;;;-5.60;99.90;;;;;;5058900;28;25050;-70
2023/02/08 00:52:39;;;;;;;32.17;14.15;;;-5.60;99.90;;;;;;5040966;28;25051;-70
2023/02/08 00:55:07;;;;;;;29.52;12.18;;;-5.60;99.90;;;;;;5041524;28;25050;-69
2023/02/08 00:57:34;;;;;;;32.75;13.73;;;-5.60;99.90;;;;;;5058660;28;25058;-69
2023/02/08 01:00:03;;;;;;;32.33;12.77;;;-5.60;99.90;;;;;;5059281;28;25118;-69
2023/02/08 01:02:30;;;;;;;32.13;12.95;;;-5.70;99.90;;;;;;5040200;28;25082;-69
2023/02/08 01:04:58;;;;;;;32.90;14.10;;;-5.70;99.90;;;;;;5059327;28;25070;-69
2023/02/08 01:07:25;;;;;;;33.22;11.45;;;-5.70;99.90;;;;;;5059080;28;25094;-69
2023/02/08 01:09:53;;;;;;;30.73;11.40;;;-5.70;99.90;;;;;;5058540;28;25050;-69
2023/02/08 01:12:20;;;;;;;31.50;12.77;;;-5.70;99.90;;;;;;5058221;28;25116;-69
2023/02/08 01:14:47;;;;;;;27.55;11.95;;;-5.70;99.90;;;;;;5040870;28;25133;-69
2023/02/08 01:17:14;;;;;;;32.40;12.65;;;-5.80;99.90;;;;;;5058869;28;25073;-69
2023/02/08 01:19:42;;;;;;;25.27;11.63;;;-5.70;99.90;;;;;;5058886;28;25074;-69
2023/02/08 01:22:09;;;;;;;33.95;12.75;;;-5.80;99.90;;;;;;5058807;28;25104;-70
2023/02/08 01:24:36;;;;;;;36.90;12.20;;;-5.70;99.90;;;;;;5058403;28;25112;-69
2023/02/08 01:27:03;;;;;;;34.50;14.68;;;-5.70;99.90;;;;;;5058726;28;25133;-69
2023/02/08 01:29:31;;;;;;;26.98;11.73;;;-5.70;99.90;;;;;;5058712;28;25056;-69
2023/02/08 01:31:58;;;;;;;30.25;11.48;;;-5.70;99.90;;;;;;5063227;28;25123;-69
2023/02/08 01:34:26;;;;;;;25.48;10.50;;;-5.80;99.90;;;;;;5078734;28;25139;-69
2023/02/08 01:36:54;;;;;;;31.73;14.02;;;-5.80;99.90;;;;;;5078318;28;25096;-69
2023/02/08 01:39:21;;;;;;;33.22;12.25;;;-5.80;99.90;;;;;;5076925;28;25114;-69
2023/02/08 01:41:48;;;;;;;24.23;9.98;;;-5.90;99.90;;;;;;5075973;28;25120;-69
2023/02/08 01:44:19;;;;;;;27.33;12.27;;;-5.90;99.90;;;;;;5077632;28;25075;-69
2023/02/08 01:46:50;;;;;;;25.60;11.73;;;-5.90;99.90;;;;;;5078384;28;25118;-69
2023/02/08 01:49:21;;;;;;;27.75;11.77;;;-5.80;99.90;;;;;;5078306;28;25077;-69
2023/02/08 01:51:56;;;;;;;24.33;11.10;;;-5.90;99.90;;;;;;5078282;28;25078;-69
2023/02/08 01:54:26;;;;;;;27.17;10.90;;;-5.90;99.90;;;;;;5078151;28;25062;-69
2023/02/08 01:56:54;;;;;;;28.02;10.95;;;-5.90;99.90;;;;;;5077749;28;25107;-69
2023/02/08 01:59:32;;;;;;;25.80;10.95;;;-5.90;99.90;;;;;;5078850;28;25116;-69
2023/02/08 02:02:02;;;;;;;24.05;10.48;;;-5.90;99.90;;;;;;5075948;28;25065;-69
2023/02/08 02:04:30;;;;;;;31.50;11.70;;;-5.90;99.90;;;;;;5077543;28;25117;-69
2023/02/08 02:07:00;;;;;;;29.08;12.15;;;-5.90;99.90;;;;;;5077992;28;25066;-69
2023/02/08 02:09:45;;;;;;;24.02;10.63;;;-5.90;99.90;;;;;;5077547;28;25113;-69
2023/02/08 02:12:13;;;;;;;25.67;10.52;;;-6.00;99.90;;;;;;5076254;28;25113;-69
2023/02/08 02:14:41;;;;;;;28.08;11.45;;;-6.00;99.90;;;;;;5077324;28;25081;-69
2023/02/08 02:17:12;;;;;;;26.30;11.40;;;-6.00;99.90;;;;;;5076157;28;25086;-69
2023/02/08 02:20:08;;;;;;;28.92;9.80;;;-6.00;99.90;;;;;;5077377;28;25117;-69
2023/02/08 02:22:38;;;;;;;26.40;10.68;;;-6.00;99.90;;;;;;5077667;28;25146;-69
2023/02/08 02:25:30;;;;;;;27.33;10.98;;;-6.00;99.90;;;;;;5077671;28;25146;-69
2023/02/08 02:28:15;;;;;;;26.10;11.75;;;-6.10;99.90;;;;;;5076986;28;25070;-69
2023/02/08 02:31:17;;;;;;;23.25;10.27;;;-6.00;99.90;;;;;;5074962;28;25056;-69
2023/02/08 02:34:02;;;;;;;26.17;10.57;;;-6.10;99.90;;;;;;5039129;28;25139;-69
2023/02/08 02:36:42;;;;;;;24.40;11.43;;;-6.00;99.90;;;;;;5056277;28;25115;-69
2023/02/08 02:39:46;;;;;;;21.85;10.02;;;-6.10;99.90;;;;;;5057535;28;25051;-69
2023/02/08 02:45:41;;;;;;;22.90;9.75;;;-6.00;99.90;;;;;;5056773;28;25130;-69
2023/02/08 02:48:12;;;;;;;24.48;10.27;;;-6.10;99.90;;;;;;5056688;28;25077;-69
2023/02/08 02:50:49;;;;;;;26.17;10.63;;;-6.10;99.90;;;;;;5057092;28;25106;-69
2023/02/08 02:53:32;;;;;;;26.30;10.45;;;-6.10;99.90;;;;;;5056224;28;25087;-69
2023/02/08 02:56:41;;;;;;;22.90;10.07;;;-6.10;99.90;;;;;;5038823;28;25169;-69
2023/02/08 02:59:10;;;;;;;23.90;9.93;;;-6.20;99.90;;;;;;5043978;28;25111;-69
2023/02/08 03:01:39;;;;;;;28.55;9.88;;;-6.20;99.90;;;;;;5057040;28;25052;-69
2023/02/08 03:04:37;;;;;;;27.70;10.95;;;-6.10;99.90;;;;;;5056395;28;25051;-69
2023/02/08 03:07:48;;;;;;;23.55;9.77;;;-6.10;99.90;;;;;;5045724;28;25066;-69
2023/02/08 03:10:54;;;;;;;25.73;10.68;;;-6.10;99.90;;;;;;5045460;28;25053;-69
2023/02/08 03:13:52;;;;;;;29.83;9.85;;;-6.10;99.90;;;;;;5038561;28;25062;-69
2023/02/08 03:16:45;;;;;;;23.77;8.98;;;-6.10;99.90;;;;;;5056297;28;25113;-69
2023/02/08 03:19:15;;;;;;;22.05;10.15;;;-6.10;99.90;;;;;;5038751;28;25147;-69
2023/02/08 03:22:19;;;;;;;24.75;9.90;;;-6.10;99.90;;;;;;5038796;28;25098;-69
2023/02/08 03:25:02;;;;;;;24.50;10.02;;;-6.10;99.90;;;;;;5047503;28;25077;-69
2023/02/08 03:27:38;;;;;;;25.13;10.98;;;-6.10;99.90;;;;;;5038453;28;25111;-69
2023/02/08 03:30:37;;;;;;;22.17;10.10;;;-6.10;99.90;;;;;;5056695;28;25061;-69
2023/02/08 03:33:35;;;;;;;19.40;8.13;;;-6.00;99.90;;;;;;5054303;28;25052;-69
2023/02/08 03:36:33;;;;;;;24.33;9.73;;;-6.00;99.90;;;;;;5031880;28;25072;-69
2023/02/08 03:39:11;;;;;;;22.77;8.27;;;-6.00;99.90;;;;;;5056337;28;25121;-69
2023/02/08 03:41:42;;;;;;;19.75;8.25;;;-6.00;99.90;;;;;;5038269;28;25149;-69
2023/02/08 03:44:23;;;;;;;18.17;8.98;;;-6.00;99.90;;;;;;5056556;28;25088;-69
2023/02/08 03:47:18;;;;;;;20.48;9.93;;;-6.00;99.90;;;;;;5056541;28;25094;-69
2023/02/08 03:49:54;;;;;;;26.80;10.60;;;-6.00;99.90;;;;;;5038673;28;25131;-68
2023/02/08 03:52:24;;;;;;;22.83;9.25;;;-6.00;99.90;;;;;;5056417;28;25095;-69
2023/02/08 03:55:18;;;;;;;23.77;10.18;;;-6.10;99.90;;;;;;5055958;28;25108;-69
2023/02/08 03:58:02;;;;;;;21.55;9.57;;;-6.10;99.90;;;;;;5031154;28;25105;-69
2023/02/08 04:00:32;;;;;;;25.45;9.25;;;-6.20;99.90;;;;;;5056620;28;25055;-69
2023/02/08 04:03:06;;;;;;;25.02;9.88;;;-6.20;99.90;;;;;;5038178;28;25075;-69
2023/02/08 04:05:35;;;;;;;25.58;11.00;;;-6.20;99.90;;;;;;5057157;28;25076;-69
2023/02/08 04:08:03;;;;;;;21.35;10.02;;;-6.30;99.90;;;;;;5060217;28;25092;-69
2023/02/08 04:10:30;;;;;;;26.20;10.90;;;-6.30;99.90;;;;;;5059755;28;25063;-69
2023/02/08 04:12:57;;;;;;;30.13;10.60;;;-6.30;99.90;;;;;;5059445;28;25081;-69
2023/02/08 04:15:26;;;;;;;25.10;9.90;;;-6.30;99.90;;;;;;5059509;28;25068;-69
2023/02/08 04:17:53;;;;;;;23.55;9.80;;;-6.40;99.90;;;;;;5059455;28;25079;-69
2023/02/08 04:20:20;;;;;;;28.13;11.27;;;-6.40;99.90;;;;;;5060002;28;25116;-69
2023/02/08 04:22:48;;;;;;;28.52;11.70;;;-6.40;99.90;;;;;;5041705;28;25113;-68
2023/02/08 04:25:15;;;;;;;23.50;9.77;;;-6.40;99.90;;;;;;5059901;28;25103;-69
2023/02/08 04:27:43;;;;;;;28.70;10.80;;;-6.40;99.90;;;;;;5041816;28;25095;-69
2023/02/08 04:30:10;;;;;;;25.30;9.45;;;-6.40;99.90;;;;;;5059421;28;25060;-69
2023/02/08 04:32:38;;;;;;;32.90;9.82;;;-6.40;99.90;;;;;;5074336;28;25108;-69
2023/02/08 04:35:05;;;;;;;24.75;10.50;;;-6.40;99.90;;;;;;5079770;28;25071;-69
2023/02/08 04:37:34;;;;;;;21.52;9.27;;;-6.40;99.90;;;;;;5079182;28;25075;-68
2023/02/08 04:40:01;;;;;;;20.65;9.20;;;-6.40;99.90;;;;;;5079330;28;25129;-68
2023/02/08 04:42:29;;;;;;;22.17;9.73;;;-6.40;99.90;;;;;;5079011;28;25131;-69
2023/02/08 04:44:56;;;;;;;27.38;11.82;;;-6.40;99.90;;;;;;5079592;28;25059;-69
2023/02/08 04:47:24;;;;;;;29.05;10.02;;;-6.50;99.90;;;;;;5078977;28;25075;-69
2023/02/08 04:49:52;;;;;;;30.23;9.80;;;-6.50;99.90;;;;;;5078490;28;25072;-69
2023/02/08 04:52:19;;;;;;;24.90;9.82;;;-6.50;99.90;;;;;;5077721;28;25048;-68
2023/02/08 04:54:47;;;;;;;24.75;10.20;;;-6.50;99.90;;;;;;5078905;28;25066;-68
2023/02/08 04:57:14;;;;;;;20.33;8.95;;;-6.50;99.90;;;;;;5079296;28;25069;-68
2023/02/08 04:59:42;;;;;;;22.02;10.77;;;-6.60;99.90;;;;;;5077903;28;25046;-69
2023/02/08 05:02:09;;;;;;;23.20;8.38;;;-6.60;99.90;;;;;;5077640;28;25064;-69
2023/02/08 05:04:36;;;;;;;21.63;9.18;;;-6.60;99.90;;;;;;5078692;28;25064;-69
2023/02/08 05:07:04;;;;;;;19.73;9.18;;;-6.60;99.90;;;;;;5077564;28;25120;-68
2023/02/08 05:09:31;;;;;;;20.23;9.50;;;-6.60;99.90;;;;;;5078351;28;25061;-69
2023/02/08 05:11:59;;;;;;;19.83;9.85;;;-6.60;99.90;;;;;;5078628;28;25055;-68
2023/02/08 05:14:27;;;;;;;25.05;9.90;;;-6.60;99.90;;;;;;5076868;28;25077;-68
2023/02/08 05:16:54;;;;;;;19.75;8.25;;;-6.60;99.90;;;;;;5078789;28;25095;-69
2023/02/08 05:19:21;;;;;;;20.00;8.13;;;-6.70;99.90;;;;;;5078614;28;25056;-68
2023/02/08 05:21:49;;;;;;;21.80;9.38;;;-6.70;99.90;;;;;;5077299;28;25119;-69
2023/02/08 05:24:16;;;;;;;22.15;10.05;;;-6.70;99.90;;;;;;5077229;28;25122;-69
2023/02/08 05:26:44;;;;;;;23.98;8.77;;;-6.70;99.90;;;;;;5077077;28;25049;-68
2023/02/08 05:29:11;;;;;;;25.75;9.73;;;-6.70;99.90;;;;;;5078385;28;25109;-68
2023/02/08 05:31:38;;;;;;;23.48;9.48;;;-6.70;99.90;;;;;;5068131;28;25067;-69
2023/02/08 05:34:06;;;;;;;19.50;8.43;;;-6.80;99.90;;;;;;5057993;28;25081;-68
2023/02/08 05:36:33;;;;;;;22.60;8.15;;;-6.80;99.90;;;;;;5058580;28;25078;-68
2023/02/08 05:39:00;;;;;;;23.58;9.95;;;-6.80;99.90;;;;;;5040278;28;25116;-68
2023/02/08 05:41:31;;;;;;;22.00;9.65;;;-6.80;99.90;;;;;;5057904;28;25057;-68
2023/02/08 05:43:58;;;;;;;20.23;9.02;;;-6.80;99.90;;;;;;5057104;28;25070;-69
2023/02/08 05:46:25;;;;;;;23.42;10.13;;;-6.80;99.90;;;;;;5058368;28;25067;-68
2023/02/08 05:48:52;;;;;;;20.67;9.05;;;-6.80;99.90;;;;;;5058405;28;25112;-68
2023/02/08 05:51:20;;;;;;;20.63;9.02;;;-6.80;99.90;;;;;;5040100;28;25051;-68
2023/02/08 05:53:47;;;;;;;24.75;10.23;;;-6.80;99.90;;;;;;5040080;28;25153;-68
2023/02/08 05:56:15;;;;;;;22.50;9.95;;;-6.80;99.90;;;;;;5058012;28;25081;-68
2023/02/08 05:58:43;;;;;;;25.40;10.07;;;-6.80;99.90;;;;;;5058190;28;25128;-68
2023/02/08 06:01:11;;;;;;;23.33;8.57;;;-6.80;99.90;;;;;;5039825;28;25075;-69
2023/02/08 06:03:39;;;;;;;23.08;10.40;;;-6.80;99.90;;;;;;5058272;28;25067;-69
2023/02/08 06:06:09;;;;;;;19.55;8.70;;;-6.70;99.90;;;;;;5057451;28;25075;-68
2023/02/08 06:08:38;;;;;;;21.27;9.23;;;-6.70;99.90;;;;;;5057383;28;25059;-68
2023/02/08 06:11:06;;;;;;;23.90;10.52;;;-6.70;99.90;;;;;;5039621;28;25077;-68
2023/02/08 06:13:34;;;;;;;18.95;8.77;;;-6.70;99.90;;;;;;5039720;28;25064;-68
2023/02/08 06:16:01;;;;;;;24.23;9.93;;;-6.70;99.90;;;;;;5057265;28;25104;-69
2023/02/08 06:18:28;;;;;;;22.02;9.93;;;-6.70;99.90;;;;;;5057226;28;25060;-68
2023/02/08 06:20:56;;;;;;;19.13;8.35;;;-6.70;99.90;;;;;;5057153;28;25065;-68
2023/02/08 06:23:24;;;;;;;20.17;8.93;;;-6.80;99.90;;;;;;5039430;28;25109;-68
2023/02/08 06:25:51;;;;;;;28.77;9.98;;;-6.80;99.90;;;;;;5057299;28;25063;-68
2023/02/08 06:28:19;;;;;;;22.63;9.00;;;-6.80;99.90;;;;;;5056415;28;25122;-68
2023/02/08 06:30:49;;;;;;;32.15;12.27;;;-6.80;99.90;;;;;;5056948;28;25146;-69
2023/02/08 06:33:18;;;;;;;40.08;15.52;;;-6.80;99.90;;;;;;5056847;28;25102;-68
2023/02/08 06:35:55;;;;;;;47.17;18.98;;;-6.80;99.90;;;;;;5057093;28;25074;-68
2023/02/08 06:38:22;;;;;;;26.23;9.40;;;-6.80;99.90;;;;;;5056842;28;25064;-68
2023/02/08 06:40:50;;;;;;;24.02;10.43;;;-6.80;99.90;;;;;;5039024;28;25065;-68
2023/02/08 06:43:17;;;;;;;21.60;9.57;;;-6.80;99.90;;;;;;5038818;28;25045;-68
2023/02/08 06:45:45;;;;;;;19.45;8.10;;;-6.80;99.90;;;;;;5039244;28;25121;-68
2023/02/08 06:48:13;;;;;;;20.40;8.68;;;-6.80;99.90;;;;;;5057258;28;25069;-68
2023/02/08 06:50:41;;;;;;;23.20;10.30;;;-6.70;99.90;;;;;;5057213;28;25106;-69
2023/02/08 06:53:08;;;;;;;23.17;9.82;;;-6.70;99.90;;;;;;5057204;28;25057;-68
2023/02/08 06:55:35;;;;;;;23.13;8.50;;;-6.70;99.90;;;;;;5055940;28;25080;-68
2023/02/08 06:58:02;;;;;;;20.10;8.02;;;-6.70;99.90;;;;;;5056461;28;25125;-68
2023/02/08 07:00:30;;;;;;;20.85;9.75;;;-6.70;99.90;;;;;;5056596;28;25138;-68
2023/02/08 07:02:59;;;;;;;19.83;8.43;;;-6.60;99.90;;;;;;5038745;28;25097;-68
2023/02/08 07:05:26;;;;;;;18.88;7.78;;;-6.60;99.90;;;;;;5056992;28;25073;-68
2023/02/08 07:07:54;;;;;;;23.25;9.40;;;-6.60;99.90;;;;;;5056875;28;25058;-68
2023/02/08 07:10:22;;;;;;;18.45;7.28;;;-6.50;99.90;;;;;;5038850;28;25121;-68
2023/02/08 07:12:51;;;;;;;17.33;8.38;;;-6.50;99.90;;;;;;5056185;28;25072;-68
2023/02/08 07:15:18;;;;;;;16.45;7.32;;;-6.50;99.90;;;;;;5056866;28;25113;-68
2023/02/08 07:17:46;;;;;;;19.70;8.38;;;-6.50;99.90;;;;;;5056833;28;25072;-68
2023/02/08 07:20:14;;;;;;;18.60;7.72;;;-6.40;99.90;;;;;;5056700;28;25072;-68
2023/02/08 07:22:41;;;;;;;18.95;8.50;;;-6.40;99.90;;;;;;5056228;28;25115;-68
2023/02/08 07:25:09;;;;;;;20.35;8.80;;;-6.40;99.90;;;;;;5038185;28;25071;-68
2023/02/08 07:27:36;;;;;;;18.67;7.97;;;-6.30;99.90;;;;;;5056083;28;25061;-68
2023/02/08 07:30:04;;;;;;;21.55;9.00;;;-6.30;99.90;;;;;;5056345;28;25138;-68
2023/02/08 07:32:31;;;;;;;19.77;8.63;;;-6.30;99.90;;;;;;5055950;28;25084;-68
2023/02/08 07:34:58;;;;;;;23.05;9.38;;;-6.30;99.90;;;;;;5038472;28;25094;-68
2023/02/08 07:37:26;;;;;;;26.08;10.73;;;-6.30;99.90;;;;;;5038414;28;25103;-68
2023/02/08 07:39:53;;;;;;;23.60;11.00;;;-6.20;99.90;;;;;;5038524;28;25104;-68
2023/02/08 07:42:21;;;;;;;22.20;10.13;;;-6.20;99.90;;;;;;5042249;28;25092;-68
2023/02/08 07:44:49;;;;;;;31.80;13.18;;;-6.20;99.90;;;;;;5060759;28;25105;-68
2023/02/08 07:47:16;;;;;;;36.17;14.73;;;-6.10;99.90;;;;;;5060393;28;25090;-68
2023/02/08 07:49:45;;;;;;;31.42;14.35;;;-6.10;99.90;;;;;;5042485;28;25062;-68
2023/02/08 07:52:12;;;;;;;27.92;12.60;;;-6.10;99.90;;;;;;5059998;28;25088;-69
2023/02/08 07:54:40;;;;;;;29.35;11.48;;;-6.10;99.90;;;;;;5060701;28;25065;-68
2023/02/08 07:57:07;;;;;;;23.30;10.48;;;-6.00;99.90;;;;;;5042099;28;25079;-68
2023/02/08 07:59:34;;;;;;;21.67;10.15;;;-6.00;99.90;;;;;;5060597;28;25051;-68
2023/02/08 08:02:03;;;;;;;33.70;14.93;;;-5.90;99.90;;;;;;5060356;28;25128;-69
2023/02/08 08:04:30;;;;;;;45.08;17.95;;;-5.90;99.90;;;;;;5042086;28;25079;-73
2023/02/08 08:06:57;;;;;;;40.03;16.13;;;-5.90;99.90;;;;;;5042047;28;25122;-73
2023/02/08 08:09:24;;;;;;;34.15;15.20;;;-5.90;99.90;;;;;;5059665;28;25069;-74
2023/02/08 08:11:51;;;;;;;27.02;13.23;;;-5.80;99.90;;;;;;5060095;28;25122;-75
2023/02/08 08:14:19;;;;;;;32.35;13.85;;;-5.80;99.90;;;;;;5059511;28;25109;-77
2023/02/08 08:16:46;;;;;;;30.13;13.48;;;-5.80;99.90;;;;;;5041841;28;25068;-78
2023/02/08 08:19:13;;;;;;;32.53;14.63;;;-5.70;99.90;;;;;;5059758;28;25075;-77
2023/02/08 08:21:41;;;;;;;29.00;13.50;;;-5.70;99.90;;;;;;5041724;28;25069;-77
2023/02/08 08:24:09;;;;;;;25.80;12.65;;;-5.60;99.90;;;;;;5041861;28;25068;-76
2023/02/08 08:26:36;;;;;;;32.00;12.35;;;-5.50;99.90;;;;;;5059465;28;25089;-85
2023/02/08 08:29:05;;;;;;;27.92;11.32;;;-5.50;99.90;;;;;;5059857;28;25072;-77
2023/02/08 08:31:32;;;;;;;26.05;12.13;;;-5.50;99.90;;;;;;5059306;28;25049;-77
2023/02/08 08:33:59;;;;;;;26.27;11.57;;;-5.50;99.90;;;;;;5041647;28;25108;-77
2023/02/08 08:36:26;;;;;;;21.50;9.32;;;-5.40;99.90;;;;;;5041416;28;25070;-77
2023/02/08 08:38:53;;;;;;;21.52;9.57;;;-5.30;99.90;;;;;;5041471;28;25079;-77
2023/02/08 08:41:22;;;;;;;26.17;9.27;;;-5.20;99.90;;;;;;5059201;28;25068;-76
2023/02/08 08:43:49;;;;;;;17.13;7.38;;;-5.10;99.90;;;;;;5059176;28;25063;-76
2023/02/08 08:46:16;;;;;;;14.15;7.00;;;-5.10;99.90;;;;;;5059492;28;25071;-77
2023/02/08 08:48:44;;;;;;;19.20;7.75;;;-4.90;99.90;;;;;;5058903;28;25137;-77
2023/02/08 08:51:12;;;;;;;19.95;8.85;;;-4.90;99.90;;;;;;5040253;28;25115;-77
2023/02/08 08:53:40;;;;;;;20.83;9.05;;;-4.80;99.90;;;;;;5041219;28;25070;-77
2023/02/08 08:56:08;;;;;;;24.83;10.48;;;-4.70;99.90;;;;;;5058728;28;25184;-76
2023/02/08 08:58:35;;;;;;;23.15;9.13;;;-4.60;99.90;;;;;;5058994;28;25121;-86
2023/02/08 09:01:03;;;;;;;18.75;8.40;;;-4.50;99.90;;;;;;5042064;28;25070;-86
2023/02/08 09:03:30;;;;;;;20.25;8.32;;;-4.50;99.90;;;;;;5041584;28;25122;-87
2023/02/08 09:05:59;;;;;;;24.08;9.55;;;-4.40;99.90;;;;;;5041182;28;25063;-84
2023/02/08 09:08:26;;;;;;;20.70;9.52;;;-4.30;99.90;;;;;;5058809;28;25063;-77
2023/02/08 09:10:53;;;;;;;18.77;7.78;;;-4.20;99.90;;;;;;5059003;28;25113;-73
2023/02/08 09:13:20;;;;;;;23.80;8.95;;;-4.20;99.90;;;;;;5058912;28;25071;-72
2023/02/08 09:15:48;;;;;;;21.20;9.07;;;-4.10;99.90;;;;;;5059160;28;24972;-72
2023/02/08 09:18:16;;;;;;;21.75;9.05;;;-4.00;99.90;;;;;;5059481;28;25108;-72
2023/02/08 09:20:44;;;;;;;17.27;8.57;;;-3.90;99.90;;;;;;5058293;28;25061;-76
2023/02/08 09:23:13;;;;;;;20.55;8.57;;;-3.80;99.90;;;;;;5058273;28;25078;-73
2023/02/08 09:25:41;;;;;;;17.77;7.78;;;-3.80;99.90;;;;;;5058564;28;25061;-72
2023/02/08 09:28:08;;;;;;;19.63;8.52;;;-3.70;99.90;;;;;;5058144;28;25055;-72
2023/02/08 09:30:35;;;;;;;19.35;8.73;;;-3.60;99.90;;;;;;5040380;28;25102;-72
2023/02/08 09:33:02;;;;;;;15.35;7.53;;;-3.50;99.90;;;;;;5058560;28;25139;-72
2023/02/08 09:35:29;;;;;;;21.50;8.48;;;-3.40;99.90;;;;;;5058152;28;25060;-72
2023/02/08 09:38:01;;;;;;;17.17;8.88;;;-3.40;99.90;;;;;;5040388;28;25112;-72
2023/02/08 09:40:54;;;;;;;16.75;7.95;;;-3.30;99.90;;;;;;5058798;28;25085;-72
2023/02/08 09:43:51;;;;;;;19.40;9.40;;;-3.20;99.90;;;;;;5040331;28;25057;-74
2023/02/08 09:46:22;;;;;;;15.77;9.02;;;-3.10;99.90;;;;;;5036549;28;25082;-72
2023/02/08 09:48:58;;;;;;;19.77;8.30;;;-3.10;99.90;;;;;;5040234;28;25058;-72
2023/02/08 09:51:36;;;;;;;19.35;9.00;;;-3.00;99.90;;;;;;5057812;28;25061;-72
2023/02/08 09:54:16;;;;;;;23.38;10.23;;;-2.90;99.90;;;;;;5040039;28;25062;-72
2023/02/08 09:56:46;;;;;;;22.38;9.95;;;-2.80;99.90;;;;;;5057640;28;25108;-72
2023/02/08 09:59:23;;;;;;;17.67;8.68;;;-2.70;99.90;;;;;;5057863;28;25078;-72
2023/02/08 10:02:14;;;;;;;18.95;8.90;;;-2.60;99.90;;;;;;5057576;28;25121;-72
2023/02/08 10:05:12;;;;;;;22.95;9.35;;;-2.50;99.90;;;;;;5056818;28;25110;-72
2023/02/08 10:07:40;;;;;;;17.98;9.65;;;-2.40;99.90;;;;;;5053291;28;25073;-72
2023/02/08 10:10:47;;;;;;;22.67;10.10;;;-2.40;99.90;;;;;;5058019;28;25054;-72
2023/02/08 10:13:43;;;;;;;19.13;9.93;;;-2.30;99.90;;;;;;5039772;28;25073;-72
2023/02/08 10:16:36;;;;;;;22.50;11.02;;;-2.20;99.90;;;;;;5057542;28;25328;-72
2023/02/08 10:19:21;;;;;;;28.95;12.07;;;-2.10;99.90;;;;;;5057304;28;25130;-72
2023/02/08 10:22:26;;;;;;;24.63;11.43;;;-2.00;99.90;;;;;;5057239;28;25163;-72
2023/02/08 10:25:11;;;;;;;27.75;11.50;;;-1.90;99.90;;;;;;5057285;28;25066;-72
2023/02/08 10:28:11;;;;;;;21.97;11.23;;;-1.80;99.90;;;;;;5057377;28;25158;-72
2023/02/08 10:31:02;;;;;;;25.63;12.38;;;-1.70;99.90;;;;;;5056904;28;25067;-72
2023/02/08 10:33:55;;;;;;;23.60;11.85;;;-1.60;99.90;;;;;;5056947;28;25083;-72
2023/02/08 10:36:31;;;;;;;24.52;11.38;;;-1.60;99.90;;;;;;5056937;28;25057;-72
2023/02/08 10:38:59;;;;;;;24.10;10.80;;;-1.50;99.90;;;;;;5057131;28;25048;-72
2023/02/08 10:41:35;;;;;;;17.42;8.38;;;-1.40;99.90;;;;;;5056785;28;25102;-71
2023/02/08 10:44:26;;;;;;;16.90;8.80;;;-1.40;99.90;;;;;;5057389;28;25075;-71
2023/02/08 10:47:13;;;;;;;16.13;7.88;;;-1.30;99.90;;;;;;5056653;28;25129;-71
2023/02/08 10:50:19;;;;;;;16.58;8.38;;;-1.20;99.90;;;;;;5057451;28;25114;-71
2023/02/08 10:52:47;;;;;;;19.30;9.70;;;-1.20;99.90;;;;;;5038880;28;25054;-71
2023/02/08 10:55:20;;;;;;;17.80;8.07;;;-1.20;99.90;;;;;;5056670;28;25064;-71
2023/02/08 10:57:49;;;;;;;19.92;9.40;;;-1.10;99.90;;;;;;5038831;28;25081;-71
2023/02/08 11:00:25;;;;;;;18.23;8.63;;;-1.00;99.90;;;;;;5057253;28;25109;-72
2023/02/08 11:02:55;;;;;;;16.38;8.07;;;-0.90;99.90;;;;;;5056538;28;25069;-72
2023/02/08 11:05:37;;;;;;;20.17;9.45;;;-0.90;99.90;;;;;;5056799;28;25123;-71
2023/02/08 11:08:14;;;;;;;18.20;8.85;;;-0.80;99.90;;;;;;5056594;28;25058;-72
2023/02/08 11:10:55;;;;;;;19.58;7.72;;;-0.70;99.90;;;;;;5056575;28;25065;-72
2023/02/08 11:13:32;;;;;;;18.80;9.05;;;-0.70;99.90;;;;;;5038590;28;25062;-72
2023/02/08 11:16:02;;;;;;;18.67;7.90;;;-0.60;99.90;;;;;;5056101;28;25065;-73
2023/02/08 11:18:47;;;;;;;17.25;8.20;;;-0.60;99.90;;;;;;5056485;28;25082;-73
2023/02/08 11:21:32;;;;;;;19.55;7.85;;;-0.50;99.90;;;;;;5056641;28;25113;-73
2023/02/08 11:24:24;;;;;;;15.82;7.00;;;-0.40;99.90;;;;;;5056598;28;25058;-72
2023/02/08 11:26:55;;;;;;;13.13;6.72;;;-0.40;99.90;;;;;;5038397;28;25068;-73
2023/02/08 11:29:29;;;;;;;16.25;7.75;;;-0.30;99.90;;;;;;5056387;28;25067;-73
2023/02/08 11:32:03;;;;;;;15.57;7.43;;;-0.20;99.90;;;;;;5056181;28;25153;-73
2023/02/08 11:34:32;;;;;;;14.70;6.93;;;-0.20;99.90;;;;;;5038422;28;25129;-72
2023/02/08 11:37:24;;;;;;;14.80;7.15;;;-0.10;99.90;;;;;;5056674;28;25066;-72
2023/02/08 11:39:58;;;;;;;16.92;7.82;;;-0.10;99.90;;;;;;5056435;28;25078;-77
2023/02/08 11:42:36;;;;;;;21.17;7.60;;;0.00;99.90;;;;;;5038288;28;25070;-72
2023/02/08 11:45:05;;;;;;;16.35;6.60;;;0.10;99.90;;;;;;5056051;28;25082;-73
2023/02/08 11:47:36;;;;;;;14.00;6.43;;;0.10;99.90;;;;;;5056608;28;25070;-72
2023/02/08 11:50:07;;;;;;;16.23;6.75;;;0.20;99.90;;;;;;5055996;28;25088;-73
2023/02/08 11:52:42;;;;;;;16.35;6.25;;;0.20;99.90;;;;;;5056146;28;25102;-74
2023/02/08 11:55:23;;;;;;;15.65;6.95;;;0.30;99.90;;;;;;5055950;28;25055;-73
2023/02/08 11:58:04;;;;;;;16.23;8.23;;;0.40;99.90;;;;;;5056152;28;25067;-73
2023/02/08 12:00:35;;;;;;;18.33;8.75;;;0.40;99.90;;;;;;5055919;28;25054;-73
2023/02/08 12:03:12;;;;;;;16.90;8.23;;;0.50;99.90;;;;;;5038468;28;25116;-73
2023/02/08 12:06:05;;;;;;;17.30;8.43;;;0.60;99.90;;;;;;5038130;28;25076;-73
2023/02/08 12:08:55;;;;;;;18.80;9.38;;;0.70;99.90;;;;;;5038381;28;25117;-73
2023/02/08 12:11:44;;;;;;;26.58;10.60;;;0.80;99.90;;;;;;5056014;28;25055;-80
2023/02/08 12:14:38;;;;;;;20.55;8.80;;;0.90;99.90;;;;;;5038359;28;25071;-77
2023/02/08 12:17:26;;;;;;;19.23;9.45;;;1.00;99.90;;;;;;5055724;28;25123;-78
2023/02/08 12:20:24;;;;;;;16.55;7.50;;;1.00;99.90;;;;;;5055747;28;25110;-76
2023/02/08 12:23:28;;;;;;;15.65;8.63;;;1.20;99.90;;;;;;5037993;28;24969;-78
2023/02/08 12:26:20;;;;;;;16.98;8.48;;;1.30;99.90;;;;;;5015997;28;25105;-78
2023/02/08 12:29:15;;;;;;;12.98;6.55;;;1.40;99.90;;;;;;5059714;28;25108;-79
2023/02/08 12:31:52;;;;;;;16.50;7.38;;;1.50;99.90;;;;;;5059459;28;25096;-73
2023/02/08 12:34:35;;;;;;;17.15;7.82;;;1.60;99.90;;;;;;5041797;28;25076;-72
2023/02/08 12:40:54;;;;;;;16.80;8.27;;;1.80;99.90;;;;;;5059206;28;25120;-72
2023/02/08 12:43:37;;;;;;;16.90;8.05;;;1.90;99.90;;;;;;5059623;28;25063;-72
2023/02/08 12:46:33;;;;;;;16.73;8.02;;;1.90;99.90;;;;;;5058995;28;25089;-72
2023/02/08 12:49:23;;;;;;;21.80;8.23;;;2.00;99.90;;;;;;5059342;28;25139;-71
2023/02/08 12:52:14;;;;;;;17.30;8.70;;;2.00;99.90;;;;;;5041315;28;25070;-72
2023/02/08 12:55:02;;;;;;;20.65;8.63;;;2.10;99.90;;;;;;5059546;28;25066;-72
2023/02/08 12:57:31;;;;;;;15.98;8.23;;;2.10;99.90;;;;;;5058884;28;25097;-71
2023/02/08 13:00:08;;;;;;;16.63;7.55;;;2.20;99.90;;;;;;5041065;28;25078;-72
2023/02/08 13:03:11;;;;;;;19.10;7.60;;;2.20;99.90;;;;;;5058702;28;25070;-72
2023/02/08 13:05:44;;;;;;;14.65;6.78;;;2.20;99.90;;;;;;5058344;28;25060;-71
2023/02/08 13:08:18;;;;;;;20.15;7.47;;;2.30;99.90;;;;;;5059242;28;25098;-72
2023/02/08 13:10:53;;;;;;;12.93;6.47;;;2.40;99.90;;;;;;5040808;28;25109;-72
2023/02/08 13:13:30;;;;;;;13.07;6.22;;;2.40;99.90;;;;;;5059226;28;25099;-72